This is the latest recevied weather packets stored in our database for station/object EB2GLU-13. If no packets are shown the sender has not sent any weather packets the latest 10 day(s).
| Time | Temp. | Humidity | Pressure | Rain* | Wind** | Luminosity | Snow |
|---|---|---|---|---|---|---|---|
| 1787404894 | 30.56° C | 53% | 1007.2 hPa | 0 mm | - | - | - |
| 1787404144 | 30.56° C | 53% | 1007 hPa | 0 mm | - | - | - |
| 1787403394 | 29.44° C | 55% | 1007.2 hPa | 0 mm | - | - | - |
| 1787402644 | 30.56° C | 52% | 1007.4 hPa | 0 mm | - | - | - |
| 1787401894 | 31.11° C | 47% | 1007.1 hPa | 0 mm | - | - | - |
| 1787401144 | 33.33° C | 46% | 1007.5 hPa | 0 mm | - | - | - |
| 1787400394 | 31.67° C | 49% | 1007.6 hPa | 0 mm | - | - | - |
| 1787399644 | 30.56° C | 50% | 1007.8 hPa | 0 mm | - | - | - |
| 1787398894 | 30.56° C | 51% | 1008 hPa | 0 mm | - | - | - |
| 1787398144 | 29.44° C | 51% | 1008.2 hPa | 0 mm | - | - | - |
| 1787397394 | 28.33° C | 53% | 1008.4 hPa | 0 mm | - | - | - |
| 1787396644 | 27.78° C | 57% | 1008.7 hPa | 0 mm | - | - | - |
| 1787395894 | 26.11° C | 57% | 1008.9 hPa | 0 mm | - | - | - |
| 1787395144 | 26.67° C | 57% | 1009.2 hPa | 0 mm | - | - | - |
| 1787394394 | 26.67° C | 56% | 1009.1 hPa | 0 mm | - | - | - |
| 1787393644 | 26.67° C | 56% | 1009.5 hPa | 0 mm | - | - | - |
| 1787392894 | 26.11° C | 59% | 1009.9 hPa | 0 mm | - | - | - |
| 1787392144 | 24.44° C | 63% | 1010.1 hPa | 0 mm | - | - | - |
| 1787391394 | 22.78° C | 67% | 1010.2 hPa | 0 mm | - | - | - |
| 1787390644 | 23.33° C | 66% | 1010.3 hPa | 0 mm | - | - | - |
| 1787389894 | 21.11° C | 72% | 1010.2 hPa | 0 mm | - | - | - |
| 1787389143 | 21.67° C | 70% | 1010.6 hPa | 0 mm | - | - | - |
| 1787388393 | 22.22° C | 70% | 1010.4 hPa | 0 mm | - | - | - |
| 1787387643 | 20° C | 73% | 1010.6 hPa | 0 mm | - | - | - |
| 1787386893 | 21.11° C | 72% | 1010.6 hPa | 0 mm | - | - | - |
* Rain latest hour (hover to see other rain measurements)
** Current wind speed in m/s (hover to see current wind gust speed)